Willow Creek, Montana
Current Conditions -  °F | °C
As of 6:56 AM on Thursday 27 Nov 2014 (Local Time) from KBZN Reporting Station
Scattered Clouds Scattered Clouds  
Wind Chill: 26°   Ceiling: Unl
Heat Index: 33°   Visibility: 10mi
Dew Point: 29°   Wind: 8mph
Humidity: 85%   Direction: 130°SE
Pressure: 30"   Gusts: NA
Location:  45.83°N, 111.65°W
Report Text: KBZN 271356Z 13007KT 10SM SCT080 01/M02 A3000 RMK AO2 SLP189 T00061017 $
Loading
Personal Weather Stations






























Interactive Weather Map New forecast layout! Learn more

10-Day Weather Forecast

Advertisements
Track Severe Weather on mobile